createdAt,value
2019-05-21T00:00:31.064Z,14.30
2019-05-21T00:03:01.530Z,14.30
2019-05-21T00:05:33.098Z,14.30
2019-05-21T00:08:03.498Z,14.30
2019-05-21T00:10:33.853Z,14.30
2019-05-21T00:13:04.286Z,14.20
2019-05-21T00:15:36.153Z,14.30
2019-05-21T00:18:06.569Z,14.30
2019-05-21T00:20:36.918Z,14.30
2019-05-21T00:23:07.335Z,14.40
2019-05-21T00:25:37.683Z,14.30
2019-05-21T00:28:30.348Z,14.30
2019-05-21T00:31:18.000Z,14.30
2019-05-21T00:34:24.470Z,14.30
2019-05-21T00:37:31.081Z,14.30
2019-05-21T00:40:37.746Z,14.30
2019-05-21T00:43:09.418Z,14.20
2019-05-21T00:45:39.824Z,14.20
2019-05-21T00:48:10.242Z,14.10
2019-05-21T00:50:40.610Z,14.20
2019-05-21T00:53:11.008Z,14.20
2019-05-21T00:55:41.357Z,14.20
2019-05-21T00:58:11.770Z,14.20
2019-05-21T01:00:43.187Z,14.20
2019-05-21T01:03:13.597Z,14.20
2019-05-21T01:05:44.300Z,14.20
2019-05-21T01:08:14.698Z,14.20
2019-05-21T01:10:45.113Z,14.20
2019-05-21T01:13:15.529Z,14.20
2019-05-21T01:15:45.941Z,14.20
2019-05-21T01:18:16.626Z,14.30
2019-05-21T01:20:47.054Z,14.20
2019-05-21T01:23:17.435Z,14.20
2019-05-21T01:25:47.842Z,14.20
2019-05-21T01:28:18.186Z,14.30
2019-05-21T01:30:48.617Z,14.30
2019-05-21T01:33:18.956Z,14.20
2019-05-21T01:35:49.389Z,14.30
2019-05-21T01:38:19.785Z,14.20
2019-05-21T01:40:50.178Z,14.30
2019-05-21T01:43:20.573Z,14.20
2019-05-21T01:45:50.946Z,14.30
2019-05-21T01:48:21.461Z,14.20
2019-05-21T01:50:51.802Z,14.20
2019-05-21T01:53:22.223Z,14.20
2019-05-21T01:55:52.593Z,14.20
2019-05-21T01:58:23.016Z,14.20
2019-05-21T02:00:53.463Z,14.20
2019-05-21T02:03:23.900Z,14.10
2019-05-21T02:05:54.342Z,14.10
2019-05-21T02:08:24.787Z,14.10
2019-05-21T02:10:55.398Z,14.10
2019-05-21T02:13:25.826Z,14.20
2019-05-21T02:15:56.188Z,14.20
2019-05-21T02:18:26.602Z,14.20
2019-05-21T02:20:56.954Z,14.20
2019-05-21T02:23:27.391Z,14.20
2019-05-21T02:25:57.756Z,14.20
2019-05-21T02:28:28.149Z,14.10
2019-05-21T02:30:58.566Z,14.10
2019-05-21T02:33:29.004Z,14.00
2019-05-21T02:35:59.400Z,14.10
2019-05-21T02:38:29.822Z,14.10
2019-05-21T02:41:00.273Z,14.00
2019-05-21T02:43:30.690Z,14.00
2019-05-21T02:46:01.045Z,14.00
2019-05-21T02:48:31.493Z,14.00
2019-05-21T02:51:01.868Z,14.00
2019-05-21T02:53:34.550Z,14.00
2019-05-21T02:56:04.261Z,13.90
2019-05-21T02:58:34.685Z,13.90
2019-05-21T03:01:17.682Z,13.90
2019-05-21T03:03:47.519Z,13.80
2019-05-21T03:06:18.104Z,13.80
2019-05-21T03:08:48.517Z,13.70
2019-05-21T03:11:18.974Z,13.60
2019-05-21T03:13:49.399Z,13.60
2019-05-21T03:16:19.752Z,13.50
2019-05-21T03:18:50.192Z,13.40
2019-05-21T03:21:20.559Z,13.50
2019-05-21T03:23:50.982Z,13.40
2019-05-21T03:26:21.352Z,13.50
2019-05-21T03:28:53.106Z,13.50
2019-05-21T03:31:23.572Z,13.50
2019-05-21T03:33:53.937Z,13.50
2019-05-21T03:36:33.306Z,13.40
2019-05-21T03:38:56.376Z,13.50
2019-05-21T03:41:26.799Z,13.40
2019-05-21T03:43:57.173Z,13.40
2019-05-21T03:46:27.999Z,13.40
2019-05-21T03:48:58.385Z,13.40
2019-05-21T03:51:28.929Z,13.40
2019-05-21T03:53:59.313Z,13.50
2019-05-21T03:56:29.749Z,13.50
2019-05-21T03:59:00.211Z,13.40
2019-05-21T04:01:30.618Z,13.50
2019-05-21T04:04:00.982Z,13.50
2019-05-21T04:06:31.487Z,13.50
2019-05-21T04:09:01.868Z,13.60
2019-05-21T04:11:33.574Z,13.60
2019-05-21T04:14:04.222Z,13.60
2019-05-21T04:16:48.339Z,13.60
2019-05-21T04:19:26.351Z,13.60
2019-05-21T04:21:56.731Z,13.60
2019-05-21T04:24:27.168Z,13.60
2019-05-21T04:26:57.775Z,13.60
2019-05-21T04:29:28.182Z,13.70
2019-05-21T04:31:59.537Z,13.60
2019-05-21T04:34:30.274Z,13.60
2019-05-21T04:37:10.833Z,13.70
2019-05-21T04:39:32.877Z,13.70
2019-05-21T04:42:03.347Z,13.80
2019-05-21T04:44:35.064Z,13.80
2019-05-21T04:47:05.441Z,13.90
2019-05-21T04:49:35.881Z,14.00
2019-05-21T04:52:06.304Z,14.00
2019-05-21T04:54:36.657Z,14.00
2019-05-21T04:57:07.318Z,14.10
2019-05-21T04:59:37.683Z,14.30
2019-05-21T05:02:08.109Z,14.30
2019-05-21T05:04:38.525Z,14.40
2019-05-21T05:07:08.944Z,14.50
2019-05-21T05:09:39.369Z,14.60
2019-05-21T05:12:09.777Z,14.60
2019-05-21T05:14:41.708Z,14.70
2019-05-21T05:17:12.133Z,14.70
2019-05-21T05:19:42.642Z,14.70
2019-05-21T05:22:13.000Z,14.70
2019-05-21T05:24:43.431Z,14.80
2019-05-21T05:27:13.806Z,14.70
2019-05-21T05:29:44.232Z,14.70
2019-05-21T05:32:14.615Z,14.80
2019-05-21T05:34:45.052Z,14.80
2019-05-21T05:37:15.401Z,14.80
2019-05-21T05:39:45.852Z,14.80
2019-05-21T05:42:16.401Z,14.80
2019-05-21T05:44:47.376Z,14.90
2019-05-21T05:47:17.778Z,14.90
2019-05-21T05:49:49.772Z,14.80
2019-05-21T05:52:20.230Z,14.90
2019-05-21T05:54:50.712Z,14.80
2019-05-21T05:57:21.189Z,14.80
2019-05-21T05:59:51.549Z,14.80
2019-05-21T06:02:22.009Z,14.80
2019-05-21T06:04:52.439Z,14.90
2019-05-21T06:07:22.885Z,15.00
2019-05-21T06:09:53.306Z,15.00
2019-05-21T06:12:23.842Z,15.20
2019-05-21T06:14:54.413Z,15.30
2019-05-21T06:17:25.158Z,15.30
2019-05-21T06:19:55.613Z,15.40
2019-05-21T06:22:26.105Z,15.40
2019-05-21T06:24:56.551Z,15.40
2019-05-21T06:27:26.928Z,15.50
2019-05-21T06:29:57.358Z,15.50
2019-05-21T06:32:27.743Z,15.60
2019-05-21T06:34:58.141Z,15.70
2019-05-21T06:37:28.583Z,15.90
2019-05-21T06:39:59.894Z,16.00
2019-05-21T06:42:30.359Z,16.00
2019-05-21T06:45:00.851Z,16.10
2019-05-21T06:47:31.322Z,16.10
2019-05-21T06:50:01.827Z,16.20
2019-05-21T06:52:32.253Z,16.20
2019-05-21T06:55:02.670Z,16.20
2019-05-21T06:57:33.078Z,16.10
2019-05-21T07:00:04.829Z,16.20
2019-05-21T07:02:35.336Z,16.30
2019-05-21T07:05:06.160Z,16.40
2019-05-21T07:07:36.565Z,16.50
2019-05-21T07:10:08.344Z,16.50
2019-05-21T07:12:38.788Z,16.70
2019-05-21T07:15:10.626Z,16.80
2019-05-21T07:17:41.050Z,16.90
2019-05-21T07:20:12.903Z,17.00
2019-05-21T07:22:43.372Z,17.00
2019-05-21T07:25:14.730Z,17.00
2019-05-21T07:27:45.506Z,17.00
2019-05-21T07:30:16.141Z,17.00
2019-05-21T07:32:46.539Z,17.00
2019-05-21T07:35:17.044Z,17.00
2019-05-21T07:37:47.479Z,17.10
2019-05-21T07:40:18.362Z,17.20
2019-05-21T07:42:48.786Z,17.20
2019-05-21T07:45:19.151Z,17.30
2019-05-21T07:47:49.577Z,17.30
2019-05-21T07:50:19.977Z,17.30
2019-05-21T07:52:51.518Z,17.20
2019-05-21T07:55:21.901Z,17.20
2019-05-21T07:57:52.314Z,17.30
2019-05-21T08:00:22.905Z,17.10
2019-05-21T08:02:53.424Z,16.90
2019-05-21T08:05:23.810Z,16.80
2019-05-21T08:07:54.204Z,16.90
2019-05-21T08:10:24.668Z,16.80
2019-05-21T08:12:55.037Z,16.90
2019-05-21T08:15:25.480Z,17.10
2019-05-21T08:17:56.064Z,17.10
2019-05-21T08:20:27.886Z,17.40
2019-05-21T08:22:58.329Z,17.50
2019-05-21T08:25:28.682Z,17.60
2019-05-21T08:27:59.123Z,17.70
2019-05-21T08:30:29.502Z,18.00
2019-05-21T08:32:59.926Z,17.90
2019-05-21T08:35:30.301Z,18.10
2019-05-21T08:38:00.730Z,18.10
2019-05-21T08:40:32.093Z,18.50
2019-05-21T08:43:02.532Z,18.50
2019-05-21T08:45:32.989Z,18.70
2019-05-21T08:48:04.144Z,19.00
2019-05-21T08:50:37.536Z,19.20
2019-05-21T08:53:10.313Z,19.50
2019-05-21T08:55:40.657Z,19.60
2019-05-21T08:58:11.823Z,19.60
2019-05-21T09:00:48.741Z,19.60
2019-05-21T09:03:29.246Z,19.80
2019-05-21T09:06:00.168Z,19.80
2019-05-21T09:08:30.656Z,20.30
2019-05-21T09:11:01.013Z,20.40
2019-05-21T09:13:32.115Z,20.00
2019-05-21T09:16:02.497Z,20.00
2019-05-21T09:18:33.220Z,20.10
2019-05-21T09:21:04.831Z,20.30
2019-05-21T09:23:35.642Z,20.20
2019-05-21T09:26:06.216Z,19.90
2019-05-21T09:28:36.652Z,20.00
2019-05-21T09:31:07.050Z,20.10
2019-05-21T09:33:37.445Z,20.20
2019-05-21T09:36:07.838Z,20.20
2019-05-21T09:38:38.284Z,20.00
2019-05-21T09:41:08.696Z,19.90
2019-05-21T09:43:39.126Z,19.70
2019-05-21T09:46:09.470Z,19.90
2019-05-21T09:48:40.968Z,19.80
2019-05-21T09:51:19.489Z,19.50
2019-05-21T09:53:43.487Z,19.60
2019-05-21T09:56:32.754Z,19.50
2019-05-21T09:59:10.122Z,19.30
2019-05-21T10:01:42.276Z,19.40
2019-05-21T10:04:15.215Z,19.40
2019-05-21T10:06:48.140Z,19.30
2019-05-21T10:09:21.036Z,19.30
2019-05-21T10:11:52.378Z,19.20
2019-05-21T10:14:24.893Z,19.40
2019-05-21T10:16:56.989Z,19.40
2019-05-21T10:19:27.662Z,19.40
2019-05-21T10:21:58.096Z,19.40
2019-05-21T10:24:28.519Z,19.30
2019-05-21T10:26:58.925Z,19.50
2019-05-21T10:29:29.288Z,19.80
2019-05-21T10:31:59.710Z,20.30
2019-05-21T10:34:30.097Z,20.50
2019-05-21T10:37:00.491Z,20.80
2019-05-21T10:39:30.977Z,20.90
2019-05-21T10:42:01.394Z,21.00
2019-05-21T10:44:31.818Z,21.40
2019-05-21T10:47:02.358Z,21.30
2019-05-21T10:49:32.891Z,20.90
2019-05-21T10:52:03.318Z,21.40
2019-05-21T10:54:33.730Z,21.10
2019-05-21T10:57:04.256Z,21.20
2019-05-21T10:59:34.702Z,21.10
2019-05-21T11:02:12.825Z,21.10
2019-05-21T11:04:45.089Z,20.80
2019-05-21T11:07:17.002Z,20.70
2019-05-21T11:09:47.532Z,20.60
2019-05-21T11:12:17.916Z,20.90
2019-05-21T11:14:48.348Z,21.30
2019-05-21T11:17:18.923Z,21.50
2019-05-21T11:19:49.377Z,21.50
2019-05-21T11:22:19.845Z,21.80
2019-05-21T11:24:50.209Z,22.40
2019-05-21T11:27:20.663Z,22.20
2019-05-21T11:29:51.120Z,22.00
2019-05-21T11:32:21.548Z,22.10
2019-05-21T11:34:52.160Z,22.60
2019-05-21T11:37:22.633Z,22.50
2019-05-21T11:39:53.061Z,22.80
2019-05-21T11:42:23.494Z,22.90
2019-05-21T11:44:53.938Z,23.00
2019-05-21T11:47:24.294Z,22.50
2019-05-21T11:49:54.702Z,22.40
2019-05-21T11:52:25.100Z,22.30
2019-05-21T11:54:56.037Z,22.90
2019-05-21T11:57:26.761Z,23.30
2019-05-21T11:59:57.180Z,23.00
2019-05-21T12:02:27.564Z,23.30
2019-05-21T12:04:57.928Z,22.90
2019-05-21T12:07:28.369Z,23.00
2019-05-21T12:09:58.869Z,23.00
2019-05-21T12:12:29.307Z,23.30
2019-05-21T12:14:59.721Z,23.00
2019-05-21T12:17:30.413Z,22.80
2019-05-21T12:20:00.841Z,23.00
2019-05-21T12:22:31.252Z,23.20
2019-05-21T12:25:01.654Z,23.20
2019-05-21T12:27:32.111Z,22.90
2019-05-21T12:30:02.526Z,23.00
2019-05-21T12:32:32.998Z,23.20
2019-05-21T12:35:03.436Z,23.40
2019-05-21T12:37:33.888Z,23.80
2019-05-21T12:40:07.001Z,24.00
2019-05-21T12:42:37.536Z,24.30
2019-05-21T12:45:08.122Z,24.60
2019-05-21T12:47:38.510Z,23.70
2019-05-21T12:50:10.035Z,23.40
2019-05-21T12:52:40.416Z,23.20
2019-05-21T12:55:12.005Z,23.60
2019-05-21T12:57:42.372Z,23.90
2019-05-21T13:00:14.384Z,24.30
2019-05-21T13:02:44.802Z,24.00
2019-05-21T13:05:15.709Z,24.40
2019-05-21T13:07:46.187Z,24.80
2019-05-21T13:10:16.790Z,24.30
2019-05-21T13:12:47.225Z,24.00
2019-05-21T13:15:17.683Z,24.00
2019-05-21T13:17:48.155Z,23.90
2019-05-21T13:20:19.199Z,23.90
2019-05-21T13:22:49.659Z,23.90
2019-05-21T13:25:20.196Z,24.00
2019-05-21T13:27:50.566Z,24.20
2019-05-21T13:30:22.209Z,24.30
2019-05-21T13:32:52.593Z,23.90
2019-05-21T13:35:23.025Z,24.20
2019-05-21T13:37:53.405Z,24.30
2019-05-21T13:40:24.346Z,24.20
2019-05-21T13:42:54.803Z,24.40
2019-05-21T13:45:25.377Z,24.40
2019-05-21T13:47:55.868Z,24.90
2019-05-21T13:50:26.305Z,24.80
2019-05-21T13:52:56.741Z,24.20
2019-05-21T13:55:27.194Z,24.60
2019-05-21T13:57:57.662Z,24.50
2019-05-21T14:00:39.141Z,24.50
2019-05-21T14:03:09.504Z,24.40
2019-05-21T14:05:40.077Z,24.00
2019-05-21T14:08:10.627Z,23.60
2019-05-21T14:10:41.613Z,23.70
2019-05-21T14:13:12.168Z,24.00
2019-05-21T14:15:42.546Z,24.00
2019-05-21T14:18:13.352Z,24.20
2019-05-21T14:20:43.781Z,24.00
2019-05-21T14:23:14.160Z,23.70
2019-05-21T14:25:45.696Z,23.90
2019-05-21T14:28:16.056Z,23.40
2019-05-21T14:30:51.215Z,23.60
2019-05-21T14:33:22.528Z,23.60
2019-05-21T14:35:52.885Z,23.80
2019-05-21T14:38:23.267Z,23.70
2019-05-21T14:40:53.711Z,22.90
2019-05-21T14:43:24.090Z,22.70
2019-05-21T14:45:54.686Z,22.60
2019-05-21T14:48:25.128Z,22.00
2019-05-21T14:50:55.481Z,21.90
2019-05-21T14:53:25.865Z,22.10
2019-05-21T14:55:56.287Z,22.20
2019-05-21T14:58:26.715Z,22.20
2019-05-21T15:00:57.214Z,22.00
2019-05-21T15:03:29.497Z,21.90
2019-05-21T15:05:59.646Z,22.10
2019-05-21T15:08:30.017Z,22.20
2019-05-21T15:11:00.487Z,21.90
2019-05-21T15:13:30.850Z,22.10
2019-05-21T15:16:01.282Z,22.40
2019-05-21T15:18:31.755Z,22.00
2019-05-21T15:21:04.126Z,22.00
2019-05-21T15:23:35.036Z,22.20
2019-05-21T15:26:05.604Z,22.50
2019-05-21T15:28:36.054Z,22.00
2019-05-21T15:31:06.589Z,22.00
2019-05-21T15:33:37.051Z,22.10
2019-05-21T15:36:07.479Z,22.20
2019-05-21T15:38:49.292Z,21.70
2019-05-21T15:41:12.421Z,21.70
2019-05-21T15:43:41.934Z,21.80
2019-05-21T15:46:12.371Z,21.80
2019-05-21T15:48:42.784Z,21.90
2019-05-21T15:51:13.247Z,21.70
2019-05-21T15:53:43.727Z,21.60
2019-05-21T15:56:14.149Z,21.30
2019-05-21T15:58:44.599Z,21.00
2019-05-21T16:01:15.009Z,20.90
2019-05-21T16:03:45.374Z,20.90
2019-05-21T16:06:15.789Z,21.20
2019-05-21T16:08:46.254Z,21.00
2019-05-21T16:11:28.139Z,21.20
2019-05-21T16:13:48.808Z,21.00
2019-05-21T16:16:19.586Z,20.90
2019-05-21T16:18:50.030Z,21.30
2019-05-21T16:21:20.457Z,21.30
2019-05-21T16:23:50.981Z,20.90
2019-05-21T16:26:23.415Z,21.10
2019-05-21T16:28:53.480Z,21.00
2019-05-21T16:31:23.928Z,20.90
2019-05-21T16:33:54.466Z,20.70
2019-05-21T16:36:24.900Z,20.60
2019-05-21T16:38:55.447Z,20.80
2019-05-21T16:41:26.101Z,20.50
2019-05-21T16:43:57.755Z,20.40
2019-05-21T16:46:28.117Z,20.30
2019-05-21T16:48:58.492Z,20.40
2019-05-21T16:51:29.101Z,20.40
2019-05-21T16:53:59.592Z,20.30
2019-05-21T16:56:29.976Z,20.20
2019-05-21T16:59:01.874Z,20.40
2019-05-21T17:01:32.353Z,20.10
2019-05-21T17:04:02.810Z,20.00
2019-05-21T17:06:33.320Z,20.00
2019-05-21T17:09:05.541Z,20.00
2019-05-21T17:11:38.987Z,19.90
2019-05-21T17:14:12.038Z,19.80
2019-05-21T17:16:42.481Z,19.80
2019-05-21T17:19:12.854Z,19.60
2019-05-21T17:21:43.283Z,19.50
2019-05-21T17:24:14.937Z,19.30
2019-05-21T17:26:46.087Z,19.50
2019-05-21T17:29:17.547Z,19.50
2019-05-21T17:31:48.213Z,19.40
2019-05-21T17:34:18.719Z,19.40
2019-05-21T17:36:49.146Z,19.30
2019-05-21T17:39:19.567Z,19.20
2019-05-21T17:41:50.010Z,19.10
2019-05-21T17:44:20.425Z,19.10
2019-05-21T17:46:50.890Z,19.10
2019-05-21T17:49:21.526Z,19.10
2019-05-21T17:51:52.134Z,19.10
2019-05-21T17:54:23.046Z,19.10
2019-05-21T17:56:53.588Z,19.00
2019-05-21T17:59:24.016Z,18.90
2019-05-21T18:01:55.188Z,18.90
2019-05-21T18:04:26.367Z,18.80
2019-05-21T18:06:58.296Z,18.70
2019-05-21T18:09:28.963Z,18.80
2019-05-21T18:11:59.696Z,18.80
2019-05-21T18:14:30.905Z,18.80
2019-05-21T18:17:01.454Z,18.80
2019-05-21T18:19:32.380Z,18.70
2019-05-21T18:22:05.791Z,18.70
2019-05-21T18:24:36.202Z,18.70
2019-05-21T18:27:06.670Z,18.60
2019-05-21T18:29:37.096Z,18.60
2019-05-21T18:32:07.546Z,18.60
2019-05-21T18:34:39.054Z,18.60
2019-05-21T18:37:09.485Z,18.60
2019-05-21T18:39:40.000Z,18.60
2019-05-21T18:42:21.682Z,18.50
2019-05-21T18:44:43.793Z,18.60
2019-05-21T18:47:14.276Z,18.50
2019-05-21T18:49:44.678Z,18.60
2019-05-21T18:52:15.053Z,18.50
2019-05-21T18:54:47.783Z,18.50
2019-05-21T18:57:17.488Z,18.40
2019-05-21T18:59:47.915Z,18.30
2019-05-21T19:02:18.378Z,18.30
2019-05-21T19:04:49.638Z,18.20
2019-05-21T19:07:20.015Z,18.20
2019-05-21T19:09:51.123Z,18.20
2019-05-21T19:12:37.613Z,18.20
2019-05-21T19:14:58.926Z,18.20
2019-05-21T19:17:35.426Z,18.30
2019-05-21T19:20:01.368Z,18.30
2019-05-21T19:22:31.813Z,18.20
2019-05-21T19:25:02.246Z,18.10
2019-05-21T19:27:34.451Z,17.90
2019-05-21T19:30:06.575Z,17.70
2019-05-21T19:32:37.891Z,17.50
2019-05-21T19:35:09.374Z,17.40
2019-05-21T19:37:39.800Z,17.20
2019-05-21T19:40:10.666Z,17.20
2019-05-21T19:42:53.777Z,17.20
2019-05-21T19:45:14.801Z,17.20
2019-05-21T19:47:44.587Z,17.20
2019-05-21T19:50:16.189Z,17.30
2019-05-21T19:52:46.695Z,17.30
2019-05-21T19:55:18.446Z,17.30
2019-05-21T19:57:48.870Z,17.20
2019-05-21T20:00:22.369Z,17.20
2019-05-21T20:02:53.391Z,17.10
2019-05-21T20:05:24.156Z,17.10
2019-05-21T20:07:54.928Z,17.00
2019-05-21T20:10:25.738Z,17.10
2019-05-21T20:12:58.505Z,17.10
2019-05-21T20:15:27.945Z,17.10
2019-05-21T20:18:06.976Z,17.10
2019-05-21T20:20:32.386Z,17.00
2019-05-21T20:23:03.015Z,17.00
2019-05-21T20:25:35.045Z,17.00
2019-05-21T20:28:06.798Z,17.00
2019-05-21T20:30:37.192Z,17.10
2019-05-21T20:33:07.757Z,17.00
2019-05-21T20:35:39.273Z,17.00
2019-05-21T20:38:10.643Z,16.90
2019-05-21T20:40:41.871Z,16.90
2019-05-21T20:43:13.343Z,16.90
2019-05-21T20:45:43.765Z,16.90
2019-05-21T20:48:16.915Z,16.90
2019-05-21T20:50:48.023Z,16.90
2019-05-21T20:53:19.477Z,17.00
2019-05-21T20:55:49.849Z,16.90
2019-05-21T20:58:20.253Z,16.80
2019-05-21T21:00:55.389Z,16.80
2019-05-21T21:03:25.745Z,16.70
2019-05-21T21:05:56.281Z,16.60
2019-05-21T21:08:28.446Z,16.50
2019-05-21T21:10:58.600Z,16.50
2019-05-21T21:13:30.237Z,16.50
2019-05-21T21:16:00.777Z,16.50
2019-05-21T21:18:31.576Z,16.50
2019-05-21T21:21:02.090Z,16.40
2019-05-21T21:23:33.201Z,16.30
2019-05-21T21:26:04.890Z,16.30
2019-05-21T21:28:35.308Z,16.40
2019-05-21T21:31:07.246Z,16.40
2019-05-21T21:33:38.371Z,16.30
2019-05-21T21:36:09.006Z,16.20
2019-05-21T21:38:39.545Z,16.20
2019-05-21T21:41:09.976Z,16.10
2019-05-21T21:43:40.434Z,16.00
2019-05-21T21:46:10.854Z,16.00
2019-05-21T21:48:45.296Z,16.00
2019-05-21T21:51:15.789Z,15.90
2019-05-21T21:53:46.747Z,15.90
2019-05-21T21:56:17.264Z,15.80
2019-05-21T21:58:47.621Z,15.90
2019-05-21T22:01:28.306Z,15.90
2019-05-21T22:04:02.500Z,16.00
2019-05-21T22:06:35.855Z,16.00
2019-05-21T22:09:08.400Z,16.00
2019-05-21T22:11:39.615Z,16.00
2019-05-21T22:14:10.477Z,16.00
2019-05-21T22:16:41.006Z,16.00
2019-05-21T22:19:12.787Z,15.90
2019-05-21T22:21:44.506Z,15.90
2019-05-21T22:24:15.052Z,15.90
2019-05-21T22:26:45.490Z,15.90
2019-05-21T22:29:15.923Z,15.90
2019-05-21T22:31:47.008Z,15.70
2019-05-21T22:34:17.689Z,15.70
2019-05-21T22:36:48.123Z,15.60
2019-05-21T22:39:20.136Z,15.60
2019-05-21T22:41:50.634Z,15.60
2019-05-21T22:44:21.069Z,15.50
2019-05-21T22:46:51.486Z,15.40
2019-05-21T22:49:22.942Z,15.40
2019-05-21T22:51:53.438Z,15.30
2019-05-21T22:54:24.795Z,15.30
2019-05-21T22:57:09.240Z,15.30
2019-05-21T22:59:45.205Z,15.30
2019-05-21T23:02:18.336Z,15.20
2019-05-21T23:04:49.891Z,15.10
2019-05-21T23:07:20.465Z,15.10
2019-05-21T23:09:59.290Z,15.10
2019-05-21T23:12:34.712Z,15.10
2019-05-21T23:15:23.852Z,15.20
2019-05-21T23:17:45.610Z,15.10
2019-05-21T23:20:37.548Z,15.10
2019-05-21T23:23:13.017Z,15.10
2019-05-21T23:26:02.748Z,15.10
2019-05-21T23:28:38.286Z,15.00
2019-05-21T23:31:10.795Z,14.90
2019-05-21T23:33:53.240Z,14.80
2019-05-21T23:36:30.475Z,14.70
2019-05-21T23:39:03.238Z,14.60
2019-05-21T23:41:44.166Z,14.60
2019-05-21T23:44:17.453Z,14.60
2019-05-21T23:46:56.178Z,14.50
2019-05-21T23:49:31.626Z,14.40
2019-05-21T23:52:05.016Z,14.50
2019-05-21T23:54:45.802Z,14.60
2019-05-21T23:57:18.008Z,14.70
2019-05-21T23:59:48.391Z,14.80
